Time;durP1;ratioP1;P1;durP2;ratioP2;P2;SDS_P1;SDS_P2;PMS_P1;PMS_P2;Temp;Humidity;BMP_temperature;BMP_pressure;BME280_temperature;BME280_humidity;BME280_pressure;Samples;Min_cycle;Max_cycle;Signal;HPM_P1;HPM_P2
2023/04/22 00:01:23;;;;;;;12.90;11.60;;;12.10;1.00;;;;;;5041951;28;20184;-58
2023/04/22 00:03:50;;;;;;;12.90;11.47;;;12.20;1.00;;;;;;5051647;28;20555;-56
2023/04/22 00:06:17;;;;;;;11.27;10.27;;;12.10;1.00;;;;;;5039863;28;20188;-58
2023/04/22 00:08:42;;;;;;;13.20;11.87;;;12.10;1.00;;;;;;5049517;28;20446;-58
2023/04/22 00:11:08;;;;;;;12.93;11.63;;;12.00;1.00;;;;;;5047520;28;20889;-57
2023/04/22 00:13:35;;;;;;;11.63;10.53;;;11.90;1.00;;;;;;5048711;28;20528;-56
2023/04/22 00:16:03;;;;;;;13.60;11.97;;;12.00;1.00;;;;;;5045050;28;20208;-60
2023/04/22 00:18:28;;;;;;;14.30;11.63;;;11.90;1.00;;;;;;5046759;28;20454;-58
2023/04/22 00:20:54;;;;;;;13.00;11.70;;;11.90;1.00;;;;;;5052254;28;20439;-56
2023/04/22 00:23:19;;;;;;;12.90;11.47;;;11.80;1.00;;;;;;5051196;28;20791;-57
2023/04/22 00:25:45;;;;;;;11.60;10.40;;;11.80;1.00;;;;;;5049646;28;20242;-57
2023/04/22 00:28:11;;;;;;;12.53;11.33;;;11.80;1.00;;;;;;5051655;28;20192;-59
2023/04/22 00:30:37;;;;;;;14.33;11.50;;;11.80;1.00;;;;;;5046933;28;20525;-57
2023/04/22 00:33:03;;;;;;;12.50;11.30;;;11.80;1.00;;;;;;5051150;28;20185;-57
2023/04/22 00:35:28;;;;;;;13.87;12.40;;;11.80;1.00;;;;;;5049543;28;20211;-56
2023/04/22 00:37:54;;;;;;;16.43;10.40;;;11.80;1.00;;;;;;5052819;28;20211;-58
2023/04/22 00:40:20;;;;;;;12.40;11.20;;;11.80;1.00;;;;;;5048778;28;20181;-58
2023/04/22 00:42:49;;;;;;;14.30;12.20;;;11.70;1.00;;;;;;5056930;28;21038;-58
2023/04/22 00:45:16;;;;;;;18.03;11.20;;;11.70;1.00;;;;;;5048332;28;20447;-56
2023/04/22 00:47:44;;;;;;;12.57;11.00;;;11.70;1.00;;;;;;5050513;28;20462;-59
2023/04/22 00:50:10;;;;;;;12.20;10.97;;;11.70;1.00;;;;;;5046933;28;20887;-56
2023/04/22 00:52:36;;;;;;;13.37;11.80;;;11.60;1.00;;;;;;5051195;28;20447;-57
2023/04/22 00:55:01;;;;;;;12.00;10.90;;;11.60;1.00;;;;;;5047730;28;20725;-58
2023/04/22 00:57:30;;;;;;;14.37;12.00;;;11.60;1.00;;;;;;5051001;28;20187;-57
2023/04/22 00:59:56;;;;;;;15.00;11.47;;;11.60;1.00;;;;;;5049032;28;20193;-57
2023/04/22 01:02:22;;;;;;;14.07;12.60;;;11.60;1.00;;;;;;5050886;28;20523;-57
2023/04/22 01:04:47;;;;;;;14.43;12.10;;;11.60;1.00;;;;;;5050910;28;20827;-58
2023/04/22 01:07:13;;;;;;;12.57;11.27;;;11.50;1.00;;;;;;5049411;28;21000;-57
2023/04/22 01:09:40;;;;;;;15.00;11.70;;;11.50;1.00;;;;;;5044770;28;20520;-56
2023/04/22 01:12:05;;;;;;;14.80;11.20;;;11.50;1.00;;;;;;5050778;28;20200;-58
2023/04/22 01:14:31;;;;;;;13.70;12.30;;;11.50;1.00;;;;;;5044918;28;21106;-58
2023/04/22 01:16:57;;;;;;;13.00;11.70;;;11.40;1.00;;;;;;5046822;28;20535;-57
2023/04/22 01:19:23;;;;;;;17.10;11.57;;;11.50;1.00;;;;;;5046630;28;20183;-57
2023/04/22 01:21:53;;;;;;;12.40;11.17;;;11.40;1.00;;;;;;5050505;28;20192;-55
2023/04/22 01:24:19;;;;;;;12.67;11.53;;;11.30;1.00;;;;;;5044285;28;20183;-57
2023/04/22 01:26:45;;;;;;;13.37;11.53;;;11.30;1.00;;;;;;5048573;28;20439;-58
2023/04/22 01:29:12;;;;;;;12.80;11.50;;;11.20;1.00;;;;;;5047119;28;20462;-57
2023/04/22 01:31:38;;;;;;;12.30;10.70;;;11.30;1.00;;;;;;5048708;28;21015;-58
2023/04/22 01:34:04;;;;;;;13.93;11.67;;;11.20;1.00;;;;;;5050930;28;20480;-57
2023/04/22 01:36:31;;;;;;;13.57;12.03;;;11.20;1.00;;;;;;5049654;28;20467;-56
2023/04/22 01:38:57;;;;;;;13.37;11.33;;;11.10;1.00;;;;;;5046105;28;20466;-58
2023/04/22 01:41:24;;;;;;;15.93;12.27;;;11.10;1.00;;;;;;5050211;28;20434;-57
2023/04/22 01:43:51;;;;;;;14.20;12.70;;;11.10;1.00;;;;;;5046575;28;20951;-57
2023/04/22 01:46:17;;;;;;;13.63;11.97;;;11.10;1.00;;;;;;5050522;28;20439;-57
2023/04/22 01:48:49;;;;;;;14.90;12.03;;;11.00;1.00;;;;;;5044020;28;20585;-57
2023/04/22 01:51:15;;;;;;;12.90;11.37;;;10.90;1.00;;;;;;5050364;28;20196;-57
2023/04/22 01:53:40;;;;;;;14.73;12.60;;;10.80;1.00;;;;;;5047716;28;20518;-58
2023/04/22 01:56:06;;;;;;;12.63;10.73;;;10.90;1.00;;;;;;5049618;28;20475;-58
2023/04/22 01:58:32;;;;;;;13.87;11.00;;;10.90;1.00;;;;;;5046811;28;20187;-57
2023/04/22 02:00:58;;;;;;;12.80;11.57;;;10.70;1.00;;;;;;5049210;28;20442;-56
2023/04/22 02:03:24;;;;;;;14.97;12.27;;;10.70;1.00;;;;;;5045675;28;20446;-57
2023/04/22 02:05:49;;;;;;;12.23;11.03;;;10.70;1.00;;;;;;5048609;28;20200;-58
2023/04/22 02:08:15;;;;;;;13.50;12.20;;;10.70;1.00;;;;;;5049682;28;20285;-59
2023/04/22 02:10:40;;;;;;;13.90;12.50;;;10.70;1.00;;;;;;5048801;28;20680;-58
2023/04/22 02:13:06;;;;;;;14.23;12.47;;;10.60;1.00;;;;;;5049351;28;20185;-57
2023/04/22 02:15:32;;;;;;;13.30;11.27;;;10.60;1.00;;;;;;5046479;28;20219;-57
2023/04/22 02:17:57;;;;;;;13.10;11.80;;;10.60;1.00;;;;;;5047810;28;20180;-57
2023/04/22 02:20:23;;;;;;;13.50;12.10;;;10.60;1.00;;;;;;5047946;28;20712;-57
2023/04/22 02:22:49;;;;;;;14.40;12.97;;;10.60;1.00;;;;;;5049434;28;20185;-58
2023/04/22 02:25:15;;;;;;;13.03;11.70;;;10.50;1.00;;;;;;5046146;28;20211;-57
2023/04/22 02:27:41;;;;;;;12.87;11.37;;;10.50;1.00;;;;;;5049190;28;20798;-56
2023/04/22 02:30:08;;;;;;;14.17;12.60;;;10.40;1.00;;;;;;5046348;28;20538;-55
2023/04/22 02:32:35;;;;;;;15.53;11.97;;;10.40;1.00;;;;;;5043995;28;20906;-57
2023/04/22 02:35:02;;;;;;;14.37;12.30;;;10.30;1.00;;;;;;5042965;28;20478;-57
2023/04/22 02:37:27;;;;;;;14.50;13.10;;;10.30;1.00;;;;;;5045184;28;20443;-57
2023/04/22 02:39:53;;;;;;;18.47;11.90;;;10.30;1.00;;;;;;5049394;28;20493;-56
2023/04/22 02:42:19;;;;;;;14.57;12.30;;;10.20;1.00;;;;;;5047486;28;20219;-56
2023/04/22 02:44:44;;;;;;;15.07;12.73;;;10.30;1.00;;;;;;5045861;28;20203;-57
2023/04/22 02:47:10;;;;;;;13.20;11.90;;;10.30;1.00;;;;;;5045505;28;20719;-57
2023/04/22 02:49:35;;;;;;;14.20;11.87;;;10.30;1.00;;;;;;5047204;28;20189;-56
2023/04/22 02:52:01;;;;;;;13.27;12.10;;;10.30;1.00;;;;;;5053487;28;20238;-58
2023/04/22 02:54:26;;;;;;;13.00;11.80;;;10.30;1.00;;;;;;5050616;28;20538;-57
2023/04/22 02:56:52;;;;;;;13.47;11.50;;;10.40;1.00;;;;;;5048579;28;20232;-56
2023/04/22 02:59:18;;;;;;;13.13;12.03;;;10.30;1.00;;;;;;5043751;28;20284;-56
2023/04/22 03:01:43;;;;;;;13.80;12.40;;;10.20;1.00;;;;;;5056023;28;20197;-56
2023/04/22 03:04:10;;;;;;;13.10;11.87;;;10.10;1.00;;;;;;5050502;28;20210;-58
2023/04/22 03:06:36;;;;;;;12.80;11.60;;;10.10;1.00;;;;;;5048699;28;20184;-56
2023/04/22 03:09:02;;;;;;;12.30;11.30;;;10.00;1.00;;;;;;5050152;28;20443;-57
2023/04/22 03:11:28;;;;;;;13.03;11.73;;;10.00;1.00;;;;;;5050700;28;20197;-57
2023/04/22 03:13:54;;;;;;;12.93;11.60;;;10.10;1.00;;;;;;5050834;28;20442;-57
2023/04/22 03:16:22;;;;;;;18.63;12.43;;;10.10;1.00;;;;;;5051027;28;20220;-57
2023/04/22 03:18:48;;;;;;;12.73;11.43;;;10.10;1.00;;;;;;5049074;28;20189;-57
2023/04/22 03:21:14;;;;;;;14.10;10.60;;;10.00;1.00;;;;;;5047451;28;20446;-57
2023/04/22 03:23:39;;;;;;;13.50;11.90;;;10.00;1.00;;;;;;5047934;28;20189;-56
2023/04/22 03:26:05;;;;;;;14.47;12.97;;;10.10;1.00;;;;;;5050063;28;20661;-56
2023/04/22 03:28:31;;;;;;;13.80;12.47;;;10.10;1.00;;;;;;5046484;28;20318;-58
2023/04/22 03:30:56;;;;;;;13.70;12.00;;;10.10;1.00;;;;;;5048962;28;20862;-57
2023/04/22 03:33:22;;;;;;;13.13;11.53;;;10.10;1.00;;;;;;5046712;28;20196;-57
2023/04/22 03:35:48;;;;;;;15.17;11.93;;;10.00;1.00;;;;;;5049828;28;20634;-56
2023/04/22 03:38:14;;;;;;;12.70;11.50;;;9.90;1.00;;;;;;5046746;28;20243;-56
2023/04/22 03:40:41;;;;;;;13.10;11.33;;;9.80;1.00;;;;;;5048185;28;20446;-57
2023/04/22 03:43:07;;;;;;;12.50;11.40;;;9.80;1.00;;;;;;5048140;28;20458;-56
2023/04/22 03:45:33;;;;;;;15.37;12.23;;;9.70;1.00;;;;;;5050763;28;20451;-56
2023/04/22 03:47:58;;;;;;;13.10;11.80;;;9.70;1.00;;;;;;5047967;28;20567;-57
2023/04/22 03:50:24;;;;;;;12.20;11.00;;;9.70;1.00;;;;;;5048943;28;20530;-57
2023/04/22 03:52:50;;;;;;;13.80;11.80;;;9.60;1.00;;;;;;5048540;28;20235;-56
2023/04/22 03:55:15;;;;;;;16.03;11.83;;;9.60;1.00;;;;;;5047776;28;20225;-57
2023/04/22 03:57:41;;;;;;;17.13;12.20;;;9.70;1.00;;;;;;5045803;28;20196;-56
2023/04/22 04:00:07;;;;;;;14.17;12.37;;;9.70;1.00;;;;;;5047381;28;20199;-57
2023/04/22 04:02:32;;;;;;;13.10;11.90;;;9.70;1.00;;;;;;5049075;28;20177;-57
2023/04/22 04:04:58;;;;;;;13.17;11.87;;;9.70;1.00;;;;;;5060656;28;20458;-56
2023/04/22 04:07:24;;;;;;;14.10;12.73;;;9.70;1.00;;;;;;5049596;28;20236;-57
2023/04/22 04:09:49;;;;;;;13.17;11.87;;;9.80;1.00;;;;;;5041098;28;20335;-57
2023/04/22 04:12:15;;;;;;;14.20;12.73;;;9.90;1.00;;;;;;5047746;28;20188;-57
2023/04/22 04:14:41;;;;;;;16.17;11.10;;;9.80;1.00;;;;;;5050161;28;20289;-56
2023/04/22 04:17:08;;;;;;;15.53;13.17;;;9.80;1.00;;;;;;5048889;28;20271;-56
2023/04/22 04:19:34;;;;;;;15.20;13.60;;;9.80;1.00;;;;;;5048373;28;20308;-56
2023/04/22 04:22:00;;;;;;;13.40;11.57;;;9.80;1.00;;;;;;5048457;28;20451;-57
2023/04/22 04:24:27;;;;;;;13.40;12.00;;;9.80;1.00;;;;;;5047069;28;20497;-57
2023/04/22 04:26:53;;;;;;;12.97;11.40;;;9.70;1.00;;;;;;5048579;28;20197;-57
2023/04/22 04:29:22;;;;;;;13.13;11.90;;;9.80;1.00;;;;;;5050558;28;20487;-56
2023/04/22 04:31:48;;;;;;;14.10;11.80;;;9.80;1.00;;;;;;5050723;28;20446;-56
2023/04/22 04:34:14;;;;;;;14.10;12.60;;;9.90;1.00;;;;;;5050089;28;21043;-58
2023/04/22 04:36:39;;;;;;;14.63;13.13;;;9.90;1.00;;;;;;5050783;28;20185;-57
2023/04/22 04:39:08;;;;;;;14.43;12.47;;;9.80;1.00;;;;;;5051284;28;20183;-57
2023/04/22 04:41:34;;;;;;;13.63;12.23;;;9.80;1.00;;;;;;5049664;28;20267;-57
2023/04/22 04:44:00;;;;;;;14.13;12.73;;;9.70;1.00;;;;;;5049685;28;20593;-56
2023/04/22 04:46:28;;;;;;;13.50;12.07;;;9.90;1.00;;;;;;5051260;28;20434;-55
2023/04/22 04:48:54;;;;;;;14.30;12.90;;;10.00;1.00;;;;;;5048750;28;20455;-57
2023/04/22 04:51:20;;;;;;;13.33;11.77;;;10.10;1.00;;;;;;5047665;28;20867;-56
2023/04/22 04:53:45;;;;;;;13.00;11.90;;;10.10;1.00;;;;;;5047480;28;20462;-57
2023/04/22 04:56:11;;;;;;;13.70;12.10;;;10.10;1.00;;;;;;5049899;28;20227;-57
2023/04/22 04:58:37;;;;;;;15.47;11.50;;;10.20;1.00;;;;;;5047604;28;20592;-56
2023/04/22 05:01:03;;;;;;;13.17;11.87;;;10.20;1.00;;;;;;5048988;28;20526;-57
2023/04/22 05:03:28;;;;;;;20.13;12.50;;;10.30;1.00;;;;;;5050606;28;20728;-57
2023/04/22 05:05:54;;;;;;;13.30;11.90;;;10.30;1.00;;;;;;5050834;28;20188;-57
2023/04/22 05:08:20;;;;;;;13.80;11.87;;;10.40;1.00;;;;;;5050733;28;20391;-56
2023/04/22 05:10:46;;;;;;;16.27;12.63;;;10.50;1.00;;;;;;5047972;28;20451;-59
2023/04/22 05:13:11;;;;;;;15.33;11.50;;;10.60;1.00;;;;;;5051013;28;20196;-57
2023/04/22 05:15:37;;;;;;;13.73;12.20;;;10.70;1.00;;;;;;5045333;28;20227;-58
2023/04/22 05:18:03;;;;;;;13.67;12.27;;;10.80;1.00;;;;;;5051920;28;20183;-56
2023/04/22 05:20:28;;;;;;;12.47;11.23;;;10.80;1.00;;;;;;5047968;28;20176;-57
2023/04/22 05:22:54;;;;;;;13.27;12.07;;;10.90;1.00;;;;;;5050377;28;20435;-58
2023/04/22 05:25:20;;;;;;;13.33;11.50;;;11.10;1.00;;;;;;5045260;28;20192;-57
2023/04/22 05:27:45;;;;;;;12.67;11.40;;;11.10;1.00;;;;;;5050713;28;20196;-57
2023/04/22 05:30:11;;;;;;;12.50;11.20;;;11.30;1.00;;;;;;5044551;28;20230;-58
2023/04/22 05:32:37;;;;;;;12.43;11.33;;;11.40;1.00;;;;;;5045856;28;20184;-55
2023/04/22 05:35:03;;;;;;;12.33;11.13;;;11.50;1.00;;;;;;5048646;28;20591;-58
2023/04/22 05:37:28;;;;;;;12.93;10.53;;;11.60;1.00;;;;;;5045057;28;20191;-57
2023/04/22 05:39:54;;;;;;;14.13;11.50;;;11.70;1.00;;;;;;5048743;28;20671;-59
2023/04/22 05:42:19;;;;;;;12.40;11.20;;;11.80;1.00;;;;;;5049154;28;20188;-57
2023/04/22 05:44:45;;;;;;;11.33;10.23;;;12.00;1.00;;;;;;5053425;28;20196;-56
2023/04/22 05:47:11;;;;;;;13.23;11.33;;;12.20;1.00;;;;;;5049951;28;20423;-57
2023/04/22 05:49:36;;;;;;;12.13;10.93;;;12.30;1.00;;;;;;5046202;28;20192;-57
2023/04/22 05:52:02;;;;;;;16.20;10.90;;;12.50;1.00;;;;;;5047436;28;20685;-58
2023/04/22 05:54:28;;;;;;;11.67;10.47;;;12.60;1.00;;;;;;5047153;28;20300;-57
2023/04/22 05:56:54;;;;;;;13.07;10.23;;;12.80;1.00;;;;;;5050019;28;20238;-58
2023/04/22 05:59:20;;;;;;;15.70;11.37;;;12.90;1.00;;;;;;5047375;28;20534;-57
2023/04/22 06:01:46;;;;;;;12.67;11.20;;;13.00;1.00;;;;;;5061754;28;20517;-57
2023/04/22 06:04:11;;;;;;;12.70;11.50;;;13.10;1.00;;;;;;5053330;28;20196;-58
2023/04/22 06:06:37;;;;;;;11.30;10.20;;;13.30;1.00;;;;;;5048654;28;20184;-58
2023/04/22 06:09:03;;;;;;;14.80;11.90;;;13.20;1.00;;;;;;5046809;28;20180;-58
2023/04/22 06:11:28;;;;;;;12.00;10.90;;;13.50;1.00;;;;;;5046297;28;21261;-58
2023/04/22 06:13:54;;;;;;;11.03;9.93;;;13.60;1.00;;;;;;5048196;28;20275;-58
2023/04/22 06:16:21;;;;;;;11.67;10.47;;;13.90;99.90;;;;;;5045694;28;20753;-59
2023/04/22 06:18:46;;;;;;;11.27;10.20;;;14.00;99.90;;;;;;5051110;28;20191;-59
2023/04/22 06:21:12;;;;;;;12.10;9.77;;;14.20;99.90;;;;;;5047016;28;20439;-58
2023/04/22 06:23:37;;;;;;;10.67;9.57;;;14.30;99.90;;;;;;5051152;28;20192;-58
2023/04/22 06:26:03;;;;;;;10.77;9.80;;;14.50;99.90;;;;;;5051843;28;20726;-58
2023/04/22 06:28:29;;;;;;;11.97;10.87;;;14.60;99.90;;;;;;5049270;28;20204;-58
2023/04/22 06:30:55;;;;;;;12.40;11.17;;;14.70;99.90;;;;;;5045525;28;20457;-59
2023/04/22 06:33:20;;;;;;;10.87;9.83;;;14.90;99.90;;;;;;5049104;28;20932;-58
2023/04/22 06:35:46;;;;;;;12.27;10.60;;;15.10;99.90;;;;;;5038080;28;20215;-58
2023/04/22 06:38:12;;;;;;;11.30;10.13;;;15.20;99.90;;;;;;5046639;28;20322;-58
2023/04/22 06:40:37;;;;;;;11.23;10.13;;;15.30;99.90;;;;;;5043438;28;20185;-57
2023/04/22 06:43:03;;;;;;;12.40;9.97;;;15.40;99.90;;;;;;5048864;28;20677;-58
2023/04/22 06:45:29;;;;;;;11.60;10.00;;;15.60;99.90;;;;;;5044241;28;20204;-58
2023/04/22 06:47:54;;;;;;;11.37;10.27;;;15.80;99.90;;;;;;5047636;28;20200;-58
2023/04/22 06:50:20;;;;;;;10.30;9.30;;;15.90;99.90;;;;;;5045740;28;20262;-58
2023/04/22 06:52:46;;;;;;;10.67;9.57;;;16.10;99.90;;;;;;5045149;28;20654;-59
2023/04/22 06:55:11;;;;;;;12.03;9.50;;;16.30;99.90;;;;;;5048756;28;20338;-59
2023/04/22 06:57:37;;;;;;;12.43;10.30;;;16.50;99.90;;;;;;5047345;28;20185;-59
2023/04/22 07:00:05;;;;;;;11.60;9.70;;;16.70;99.90;;;;;;5043788;28;20192;-59
2023/04/22 07:02:30;;;;;;;10.60;9.50;;;16.80;99.90;;;;;;5055076;28;20185;-58
2023/04/22 07:04:56;;;;;;;14.67;10.63;;;17.00;99.90;;;;;;5046080;28;21005;-59
2023/04/22 07:07:22;;;;;;;10.10;9.20;;;17.20;99.90;;;;;;5046647;28;20409;-57
2023/04/22 07:09:47;;;;;;;12.13;8.90;;;17.20;99.90;;;;;;5050215;28;20197;-59
2023/04/22 07:12:13;;;;;;;9.40;8.50;;;17.20;99.90;;;;;;5046046;28;20185;-59
2023/04/22 07:14:43;;;;;;;10.53;9.53;;;17.30;99.90;;;;;;5047537;28;20201;-58
2023/04/22 07:17:09;;;;;;;9.97;8.70;;;17.30;99.90;;;;;;5044830;28;20184;-59
2023/04/22 07:19:35;;;;;;;10.10;9.20;;;17.50;99.90;;;;;;5047922;28;20433;-57
2023/04/22 07:22:02;;;;;;;10.20;9.30;;;17.60;99.90;;;;;;5039680;28;20435;-57
2023/04/22 07:24:28;;;;;;;10.37;9.23;;;17.70;99.90;;;;;;5044667;28;20180;-58
2023/04/22 07:26:54;;;;;;;10.77;9.20;;;17.80;99.90;;;;;;5042602;28;20813;-58
2023/04/22 07:29:19;;;;;;;10.67;9.67;;;17.90;99.90;;;;;;5047964;28;20430;-58
2023/04/22 07:31:45;;;;;;;10.57;9.67;;;17.90;99.90;;;;;;5046229;28;20200;-59
2023/04/22 07:34:11;;;;;;;9.97;9.13;;;18.10;99.90;;;;;;5048313;28;20586;-58
2023/04/22 07:36:36;;;;;;;9.70;8.90;;;18.10;99.90;;;;;;5048269;28;20550;-58
2023/04/22 07:39:02;;;;;;;12.50;9.17;;;18.20;99.90;;;;;;5052276;28;20188;-58
2023/04/22 07:41:28;;;;;;;9.97;9.00;;;18.30;99.90;;;;;;5046829;28;20250;-59
2023/04/22 07:43:54;;;;;;;11.13;9.37;;;18.30;99.90;;;;;;5051436;28;20525;-58
2023/04/22 07:46:19;;;;;;;11.00;10.00;;;18.40;99.90;;;;;;5046815;28;20596;-57
2023/04/22 07:48:45;;;;;;;11.73;9.23;;;18.70;99.90;;;;;;5047527;28;20505;-59
2023/04/22 07:51:11;;;;;;;13.43;10.60;;;18.80;99.90;;;;;;5051752;28;20223;-58
2023/04/22 07:53:36;;;;;;;9.83;8.93;;;19.00;99.90;;;;;;5050471;28;20196;-57
2023/04/22 07:56:02;;;;;;;10.10;9.10;;;19.10;99.90;;;;;;5045972;28;20593;-58
2023/04/22 07:58:28;;;;;;;10.20;9.20;;;19.10;99.90;;;;;;5050411;28;20291;-58
2023/04/22 08:00:54;;;;;;;10.90;9.43;;;19.10;99.90;;;;;;5049942;28;20879;-58
2023/04/22 08:03:19;;;;;;;10.67;9.77;;;19.30;99.90;;;;;;5046126;28;20185;-58
2023/04/22 08:05:45;;;;;;;10.10;9.10;;;19.50;99.90;;;;;;5047376;28;20621;-58
2023/04/22 08:08:10;;;;;;;9.70;8.70;;;19.60;99.90;;;;;;5049922;28;20200;-57
2023/04/22 08:10:36;;;;;;;10.10;9.20;;;19.70;99.90;;;;;;5044464;28;20189;-58
2023/04/22 08:13:02;;;;;;;9.97;9.03;;;19.80;99.90;;;;;;5046351;28;20189;-58
2023/04/22 08:15:27;;;;;;;9.87;8.87;;;19.90;99.90;;;;;;5048871;28;20750;-58
2023/04/22 08:17:53;;;;;;;10.13;8.97;;;19.90;99.90;;;;;;5050272;28;20557;-59
2023/04/22 08:20:19;;;;;;;9.50;8.60;;;20.00;99.90;;;;;;5049194;28;20653;-58
2023/04/22 08:22:45;;;;;;;9.23;8.27;;;20.20;99.90;;;;;;5048257;28;20194;-59
2023/04/22 08:25:11;;;;;;;10.37;9.10;;;20.30;99.90;;;;;;5048842;28;20535;-58
2023/04/22 08:27:37;;;;;;;13.40;8.97;;;20.30;99.90;;;;;;5049530;28;20457;-58
2023/04/22 08:30:05;;;;;;;11.33;8.73;;;20.40;99.90;;;;;;5051293;28;20517;-58
2023/04/22 08:32:31;;;;;;;10.10;9.10;;;20.50;99.90;;;;;;5043691;28;20438;-58
2023/04/22 08:34:56;;;;;;;9.53;8.80;;;20.60;99.90;;;;;;5042822;28;20453;-58
2023/04/22 08:37:22;;;;;;;10.30;9.30;;;20.60;99.90;;;;;;5046150;28;20189;-58
2023/04/22 08:39:48;;;;;;;9.47;8.47;;;20.70;99.90;;;;;;5040622;28;20180;-58
2023/04/22 08:42:14;;;;;;;9.03;8.20;;;20.80;99.90;;;;;;5041591;28;20188;-57
2023/04/22 08:44:40;;;;;;;11.00;10.00;;;20.90;99.90;;;;;;5049468;28;20318;-58
2023/04/22 08:47:08;;;;;;;9.80;8.80;;;20.80;99.90;;;;;;5051544;28;20438;-58
2023/04/22 08:49:34;;;;;;;10.30;9.30;;;20.90;99.90;;;;;;5059497;28;20503;-58
2023/04/22 08:52:00;;;;;;;10.10;9.03;;;21.00;99.90;;;;;;5047151;28;21239;-57
2023/04/22 08:54:26;;;;;;;9.53;8.80;;;21.00;99.90;;;;;;5050724;28;20526;-57
2023/04/22 08:56:52;;;;;;;15.30;10.43;;;21.10;99.90;;;;;;5050451;28;20243;-58
2023/04/22 08:59:20;;;;;;;11.77;8.60;;;21.40;99.90;;;;;;5048289;28;20370;-58
2023/04/22 09:01:52;;;;;;;9.13;7.90;;;21.60;99.90;;;;;;5046431;28;20601;-57
2023/04/22 09:04:18;;;;;;;9.33;8.43;;;21.70;99.90;;;;;;5047506;28;20944;-58
2023/04/22 09:06:44;;;;;;;12.07;8.30;;;21.70;99.90;;;;;;5052535;28;20808;-58
2023/04/22 09:09:10;;;;;;;10.73;8.27;;;21.60;99.90;;;;;;5049702;28;20457;-58
2023/04/22 09:11:36;;;;;;;9.00;8.30;;;21.70;99.90;;;;;;5061657;28;20434;-58
2023/04/22 09:14:03;;;;;;;10.63;9.30;;;21.80;99.90;;;;;;5049790;28;20216;-58
2023/04/22 09:16:40;;;;;;;11.47;8.50;;;22.00;99.90;;;;;;5047117;28;20892;-59
2023/04/22 09:19:10;;;;;;;8.03;7.33;;;22.00;99.90;;;;;;5039220;28;20444;-58
2023/04/22 09:21:36;;;;;;;9.20;8.30;;;22.00;99.90;;;;;;5046590;28;20413;-59
2023/04/22 09:24:05;;;;;;;9.57;8.63;;;21.90;99.90;;;;;;5046654;28;20442;-58
2023/04/22 09:26:31;;;;;;;8.60;7.90;;;22.00;99.90;;;;;;5046593;28;20448;-58
2023/04/22 09:28:58;;;;;;;8.40;7.60;;;22.00;99.90;;;;;;5047729;28;20848;-58
2023/04/22 09:31:24;;;;;;;8.70;7.90;;;22.10;99.90;;;;;;5050138;28;20673;-58
2023/04/22 09:33:56;;;;;;;9.40;7.90;;;22.10;99.90;;;;;;5039703;28;20467;-59
2023/04/22 09:36:26;;;;;;;9.10;8.33;;;22.20;99.90;;;;;;5036202;28;20464;-56
2023/04/22 09:38:57;;;;;;;8.70;7.90;;;22.20;99.90;;;;;;5034172;28;20435;-56
2023/04/22 09:41:30;;;;;;;9.20;8.30;;;22.20;99.90;;;;;;5040808;28;20454;-56
2023/04/22 09:44:00;;;;;;;10.60;7.73;;;22.30;99.90;;;;;;5038844;28;20451;-56
2023/04/22 09:46:27;;;;;;;7.80;7.00;;;22.30;99.90;;;;;;5035232;28;20439;-57
2023/04/22 09:48:54;;;;;;;7.60;6.90;;;22.30;99.90;;;;;;5036366;28;20447;-56
2023/04/22 09:51:21;;;;;;;7.43;6.10;;;22.50;99.90;;;;;;5037698;28;20451;-57
2023/04/22 09:54:16;;;;;;;6.57;5.97;;;22.60;99.90;;;;;;5037362;28;20454;-56
2023/04/22 09:56:50;;;;;;;9.00;6.53;;;22.60;99.90;;;;;;5042063;28;20470;-56
2023/04/22 09:59:21;;;;;;;6.30;5.70;;;22.60;99.90;;;;;;5044393;28;20516;-57
2023/04/22 10:01:48;;;;;;;7.73;6.37;;;22.50;99.90;;;;;;5043018;28;20439;-57
2023/04/22 10:04:14;;;;;;;7.33;5.97;;;22.60;99.90;;;;;;5044426;28;20447;-58
2023/04/22 10:06:41;;;;;;;8.30;6.70;;;22.60;99.90;;;;;;5039041;28;20971;-56
2023/04/22 10:09:08;;;;;;;7.13;6.30;;;22.70;99.90;;;;;;5049789;28;20450;-58
2023/04/22 10:11:34;;;;;;;9.70;6.40;;;22.80;99.90;;;;;;5040496;28;20467;-57
2023/04/22 10:14:00;;;;;;;7.60;6.70;;;22.80;99.90;;;;;;5044362;28;20451;-56
2023/04/22 10:16:30;;;;;;;7.27;6.13;;;23.10;99.90;;;;;;5045294;28;20480;-56
2023/04/22 10:18:58;;;;;;;8.40;5.90;;;23.10;99.90;;;;;;5044635;28;20666;-57
2023/04/22 10:21:26;;;;;;;7.80;6.63;;;23.00;99.90;;;;;;5046125;28;20588;-57
2023/04/22 10:23:52;;;;;;;6.40;5.80;;;22.80;99.90;;;;;;5043432;28;20450;-56
2023/04/22 10:26:40;;;;;;;8.20;6.33;;;22.80;99.90;;;;;;5047532;28;20493;-56
2023/04/22 10:29:08;;;;;;;8.33;5.80;;;22.90;99.90;;;;;;5044933;28;20443;-56
2023/04/22 10:31:36;;;;;;;6.67;5.97;;;23.10;99.90;;;;;;5046644;28;20505;-57
2023/04/22 10:34:12;;;;;;;6.97;6.27;;;23.00;99.90;;;;;;5047288;28;20493;-57
2023/04/22 10:36:54;;;;;;;7.33;6.40;;;23.10;99.90;;;;;;5045896;28;20458;-57
2023/04/22 10:39:21;;;;;;;10.20;6.33;;;23.20;99.90;;;;;;5045528;28;20446;-59
2023/04/22 10:42:06;;;;;;;8.10;6.40;;;23.30;99.90;;;;;;5037953;28;20544;-56
2023/04/22 10:44:52;;;;;;;6.67;5.73;;;23.40;99.90;;;;;;5046736;28;20525;-57
2023/04/22 10:47:35;;;;;;;6.73;6.10;;;23.60;99.90;;;;;;5044556;28;20442;-58
2023/04/22 10:50:20;;;;;;;12.73;6.30;;;23.80;99.90;;;;;;5045987;28;20447;-58
2023/04/22 10:52:53;;;;;;;6.87;6.10;;;23.90;99.90;;;;;;5060372;28;20438;-57
2023/04/22 10:55:20;;;;;;;7.10;6.50;;;23.60;99.90;;;;;;5048322;28;20513;-55
2023/04/22 10:57:47;;;;;;;10.43;5.63;;;23.60;99.90;;;;;;5045072;28;20509;-55
2023/04/22 11:00:17;;;;;;;7.80;6.37;;;23.50;99.90;;;;;;5045474;28;20442;-56
2023/04/22 11:02:50;;;;;;;9.57;6.37;;;23.40;99.90;;;;;;5046682;28;20504;-57
2023/04/22 11:05:20;;;;;;;7.73;5.73;;;23.40;99.90;;;;;;5045965;28;20445;-57
2023/04/22 11:07:48;;;;;;;7.00;5.90;;;23.20;99.90;;;;;;5065918;28;20487;-56
2023/04/22 11:10:32;;;;;;;7.80;6.23;;;23.20;99.90;;;;;;5060349;28;20956;-56
2023/04/22 11:13:00;;;;;;;6.30;5.70;;;23.10;99.90;;;;;;5060527;28;20435;-58
2023/04/22 11:15:27;;;;;;;6.87;5.90;;;23.20;99.90;;;;;;5060650;28;20494;-56
2023/04/22 11:17:54;;;;;;;6.33;5.27;;;23.30;99.90;;;;;;5048700;28;20483;-56
2023/04/22 11:20:21;;;;;;;7.87;6.57;;;23.30;99.90;;;;;;5051762;28;20435;-57
2023/04/22 11:22:49;;;;;;;9.40;6.30;;;23.40;99.90;;;;;;5052702;28;20960;-58
2023/04/22 11:25:15;;;;;;;8.53;6.77;;;23.40;99.90;;;;;;5053033;28;20547;-56
2023/04/22 11:27:44;;;;;;;7.47;6.20;;;23.30;99.90;;;;;;5067127;28;20438;-57
2023/04/22 11:30:12;;;;;;;7.00;6.20;;;23.70;99.90;;;;;;5057325;28;20177;-56
2023/04/22 11:32:39;;;;;;;8.10;6.33;;;23.70;99.90;;;;;;5062246;28;20441;-56
2023/04/22 11:35:07;;;;;;;8.80;6.60;;;23.60;99.90;;;;;;5057784;28;20436;-56
2023/04/22 11:38:02;;;;;;;12.17;6.77;;;23.70;99.90;;;;;;5047647;28;20447;-58
2023/04/22 11:40:33;;;;;;;6.93;5.60;;;23.70;99.90;;;;;;5041874;28;20986;-57
2023/04/22 11:43:01;;;;;;;9.40;5.70;;;23.60;99.90;;;;;;5045062;28;20441;-58
2023/04/22 11:45:28;;;;;;;7.50;5.70;;;23.50;99.90;;;;;;5048486;28;20450;-57
2023/04/22 11:47:55;;;;;;;6.73;6.10;;;23.60;99.90;;;;;;5051600;28;20430;-58
2023/04/22 11:50:27;;;;;;;6.73;5.67;;;23.80;99.90;;;;;;5049477;28;20438;-58
2023/04/22 11:52:54;;;;;;;6.50;5.90;;;24.00;99.90;;;;;;5049462;28;20442;-56
2023/04/22 11:55:34;;;;;;;6.77;6.07;;;24.10;99.90;;;;;;5047223;28;20488;-58
2023/04/22 11:58:01;;;;;;;7.37;6.60;;;23.70;99.90;;;;;;5033137;28;20447;-57
2023/04/22 12:00:33;;;;;;;6.57;6.07;;;23.50;99.90;;;;;;5045105;28;20455;-57
2023/04/22 12:03:00;;;;;;;8.63;6.33;;;23.70;99.90;;;;;;5041784;28;20442;-57
2023/04/22 12:05:36;;;;;;;7.83;5.90;;;23.60;99.90;;;;;;5045419;28;20848;-57
2023/04/22 12:08:12;;;;;;;10.23;6.33;;;23.70;99.90;;;;;;5044932;28;20954;-57
2023/04/22 12:10:43;;;;;;;6.57;5.80;;;23.80;99.90;;;;;;5063249;28;20748;-58
2023/04/22 12:13:09;;;;;;;8.07;5.73;;;23.80;99.90;;;;;;5050645;28;20658;-57
2023/04/22 12:15:40;;;;;;;8.30;5.90;;;23.80;99.90;;;;;;5052104;28;20456;-58
2023/04/22 12:18:06;;;;;;;8.47;6.07;;;23.70;99.90;;;;;;5043134;28;21162;-58
2023/04/22 12:20:35;;;;;;;6.90;6.00;;;23.60;99.90;;;;;;5049633;28;20438;-59
2023/04/22 12:23:03;;;;;;;10.33;6.60;;;23.50;99.90;;;;;;5045104;28;20189;-58
2023/04/22 12:25:28;;;;;;;8.50;6.70;;;23.40;99.90;;;;;;5044124;28;20526;-57
2023/04/22 12:27:56;;;;;;;8.83;5.90;;;23.30;99.90;;;;;;5051407;28;20522;-57
2023/04/22 12:30:23;;;;;;;9.53;6.30;;;23.40;99.90;;;;;;5050140;28;20598;-57
2023/04/22 12:32:49;;;;;;;6.77;6.17;;;23.50;99.90;;;;;;5043176;28;20455;-58
2023/04/22 12:35:15;;;;;;;8.50;5.90;;;23.50;99.90;;;;;;5044540;28;21006;-57
2023/04/22 12:37:41;;;;;;;7.37;6.50;;;23.50;99.90;;;;;;5049154;28;21081;-59
2023/04/22 12:40:08;;;;;;;7.30;6.53;;;23.50;99.90;;;;;;5048962;28;20531;-57